Smyrna, Michigan
Current Conditions -  °F | °C
As of 5:34 PM on Friday 24 Oct 2014 (Local Time) from KY70 Reporting Station
Overcast Overcast  
Wind Chill: 60°   Ceiling: 3200
Heat Index: 60°   Visibility: 10mi
Dew Point: 50°   Wind: 7mph
Humidity: 69%   Direction: 240°WSW
Pressure: 29.96"   Gusts: NA
Location:  43.06°N, 85.26°W
Report Text: KY70 242134Z AUTO 24006KT 10SM OVC032 16/10 A2996 RMK AO2 T01550099
Loading
Personal Weather Stations






























Interactive Weather Map
Tropical Storm Tracking
New forecast layout! Learn more

10-Day Weather Forecast

Advertisements
Track Severe Weather on mobile